createdAt,value
2022-09-02T00:00:06.814Z,3.10
2022-09-02T00:02:36.519Z,3.53
2022-09-02T00:05:05.505Z,3.40
2022-09-02T00:07:33.886Z,3.23
2022-09-02T00:10:02.576Z,3.70
2022-09-02T00:12:30.791Z,3.90
2022-09-02T00:14:58.989Z,3.13
2022-09-02T00:17:28.142Z,3.20
2022-09-02T00:19:58.370Z,3.07
2022-09-02T00:22:26.619Z,3.57
2022-09-02T00:24:54.675Z,3.50
2022-09-02T00:27:23.390Z,3.93
2022-09-02T00:29:51.699Z,3.30
2022-09-02T00:32:19.830Z,3.20
2022-09-02T00:34:48.993Z,3.60
2022-09-02T00:37:18.818Z,3.10
2022-09-02T00:39:46.964Z,3.30
2022-09-02T00:42:15.550Z,2.63
2022-09-02T00:44:43.790Z,3.60
2022-09-02T00:47:12.171Z,3.77
2022-09-02T00:49:42.580Z,3.03
2022-09-02T00:52:14.872Z,2.90
2022-09-02T00:54:49.198Z,2.83
2022-09-02T00:57:22.292Z,3.63
2022-09-02T00:59:55.642Z,3.30
2022-09-02T01:02:25.487Z,3.03
2022-09-02T01:04:56.961Z,3.47
2022-09-02T01:07:26.599Z,3.37
2022-09-02T01:09:57.624Z,3.63
2022-09-02T01:12:27.847Z,3.27
2022-09-02T01:14:56.595Z,3.33
2022-09-02T01:17:26.404Z,3.30
2022-09-02T01:19:58.480Z,3.40
2022-09-02T01:22:31.695Z,3.30
2022-09-02T01:25:05.832Z,3.83
2022-09-02T01:27:33.979Z,3.43
2022-09-02T01:30:03.916Z,3.70
2022-09-02T01:32:32.945Z,3.73
2022-09-02T01:35:01.289Z,3.23
2022-09-02T01:37:32.512Z,3.50
2022-09-02T01:40:01.633Z,3.13
2022-09-02T01:42:29.976Z,3.00
2022-09-02T01:44:58.032Z,3.53
2022-09-02T01:47:27.832Z,3.57
2022-09-02T01:49:56.847Z,3.50
2022-09-02T01:52:26.160Z,3.57
2022-09-02T01:54:56.465Z,4.03
2022-09-02T01:57:26.196Z,3.90
2022-09-02T01:59:55.280Z,3.57
2022-09-02T02:02:24.009Z,4.03
2022-09-02T02:04:53.294Z,3.57
2022-09-02T02:07:22.955Z,3.30
2022-09-02T02:09:51.710Z,4.10
2022-09-02T02:12:22.183Z,3.40
2022-09-02T02:14:50.924Z,3.47
2022-09-02T02:17:19.438Z,3.87
2022-09-02T02:19:47.887Z,4.50
2022-09-02T02:22:16.391Z,4.10
2022-09-02T02:24:44.635Z,4.30
2022-09-02T02:27:13.032Z,4.20
2022-09-02T02:29:42.601Z,4.50
2022-09-02T02:32:10.702Z,4.23
2022-09-02T02:34:40.864Z,4.97
2022-09-02T02:37:09.172Z,4.13
2022-09-02T02:39:37.245Z,4.20
2022-09-02T02:42:05.995Z,4.47
2022-09-02T02:44:34.458Z,4.67
2022-09-02T02:47:04.702Z,5.30
2022-09-02T02:49:33.211Z,4.40
2022-09-02T02:52:01.807Z,4.97
2022-09-02T02:54:35.073Z,4.43
2022-09-02T02:57:04.520Z,4.50
2022-09-02T02:59:33.132Z,4.23
2022-09-02T03:02:02.144Z,4.70
2022-09-02T03:04:32.372Z,4.20
2022-09-02T03:07:00.752Z,4.23
2022-09-02T03:09:29.727Z,4.60
2022-09-02T03:11:58.426Z,4.43
2022-09-02T03:14:26.669Z,4.83
2022-09-02T03:16:55.102Z,4.90
2022-09-02T03:19:23.419Z,4.70
2022-09-02T03:21:53.569Z,4.73
2022-09-02T03:24:22.457Z,5.17
2022-09-02T03:26:50.530Z,4.40
2022-09-02T03:29:19.201Z,5.00
2022-09-02T03:31:47.384Z,4.33
2022-09-02T03:34:15.839Z,5.40
2022-09-02T03:36:45.806Z,4.40
2022-09-02T03:39:15.981Z,4.90
2022-09-02T03:41:45.324Z,4.17
2022-09-02T03:44:13.585Z,4.13
2022-09-02T03:46:41.708Z,4.30
2022-09-02T03:49:10.280Z,4.20
2022-09-02T03:51:41.549Z,3.83
2022-09-02T03:54:15.358Z,4.00
2022-09-02T03:56:45.115Z,5.50
2022-09-02T03:59:14.171Z,4.27
2022-09-02T04:01:42.579Z,4.33
2022-09-02T04:04:10.959Z,5.57
2022-09-02T04:06:39.763Z,5.37
2022-09-02T04:09:08.866Z,5.07
2022-09-02T04:11:37.219Z,6.67
2022-09-02T04:14:07.424Z,6.50
2022-09-02T04:17:30.784Z,5.77
2022-09-02T04:20:53.837Z,5.13
2022-09-02T04:23:41.259Z,5.77
2022-09-02T04:26:13.172Z,5.80
2022-09-02T04:28:42.334Z,5.90
2022-09-02T04:31:14.199Z,5.90
2022-09-02T04:33:43.372Z,5.10
2022-09-02T04:36:14.718Z,6.20
2022-09-02T04:38:43.995Z,5.63
2022-09-02T04:41:14.554Z,5.43
2022-09-02T04:43:43.093Z,5.37
2022-09-02T04:46:14.801Z,6.17
2022-09-02T04:48:44.791Z,5.80
2022-09-02T04:51:15.496Z,6.23
2022-09-02T04:53:44.805Z,6.00
2022-09-02T04:56:15.252Z,5.50
2022-09-02T04:58:44.415Z,5.00
2022-09-02T05:01:17.989Z,5.00
2022-09-02T05:03:47.613Z,5.13
2022-09-02T05:06:18.171Z,5.07
2022-09-02T05:08:48.070Z,5.40
2022-09-02T05:11:19.899Z,4.53
2022-09-02T05:13:51.576Z,4.77
2022-09-02T05:16:23.151Z,4.70
2022-09-02T05:18:52.827Z,4.87
2022-09-02T05:21:23.103Z,4.07
2022-09-02T05:23:51.663Z,4.13
2022-09-02T05:26:23.537Z,4.20
2022-09-02T05:28:51.964Z,4.07
2022-09-02T05:31:22.764Z,4.23
2022-09-02T05:33:51.049Z,4.20
2022-09-02T05:36:21.267Z,3.60
2022-09-02T05:38:49.773Z,3.93
2022-09-02T05:41:23.380Z,3.00
2022-09-02T05:43:52.749Z,3.87
2022-09-02T05:46:24.488Z,3.17
2022-09-02T05:49:09.308Z,3.57
2022-09-02T05:51:42.857Z,3.60
2022-09-02T05:54:13.835Z,3.70
2022-09-02T05:56:44.932Z,3.30
2022-09-02T05:59:14.282Z,3.70
2022-09-02T06:01:44.391Z,3.80
2022-09-02T06:04:12.912Z,3.23
2022-09-02T06:06:41.996Z,3.87
2022-09-02T06:09:12.050Z,3.23
2022-09-02T06:11:44.981Z,3.20
2022-09-02T06:14:14.061Z,4.23
2022-09-02T06:16:44.819Z,3.00
2022-09-02T06:19:16.427Z,3.87
2022-09-02T06:21:48.063Z,3.70
2022-09-02T06:24:16.670Z,3.40
2022-09-02T06:26:45.183Z,3.50
2022-09-02T06:29:13.875Z,3.77
2022-09-02T06:31:45.057Z,3.63
2022-09-02T06:34:15.108Z,3.80
2022-09-02T06:36:45.343Z,3.40
2022-09-02T06:39:16.680Z,3.67
2022-09-02T06:41:47.609Z,3.93
2022-09-02T06:44:16.337Z,3.53
2022-09-02T06:46:48.700Z,3.70
2022-09-02T06:49:20.034Z,2.83
2022-09-02T06:51:49.910Z,2.80
2022-09-02T06:54:20.585Z,2.60
2022-09-02T06:56:49.929Z,2.60
2022-09-02T06:59:18.944Z,3.03
2022-09-02T07:01:48.968Z,3.10
2022-09-02T07:04:35.058Z,3.30
2022-09-02T07:07:06.376Z,2.93
2022-09-02T07:09:34.596Z,2.40
2022-09-02T07:12:05.496Z,2.83
2022-09-02T07:14:38.081Z,3.10
2022-09-02T07:17:09.568Z,2.50
2022-09-02T07:19:39.216Z,3.17
2022-09-02T07:22:08.270Z,2.80
2022-09-02T07:24:37.578Z,2.77
2022-09-02T07:27:06.869Z,2.97
2022-09-02T07:29:36.586Z,3.00
2022-09-02T07:32:05.431Z,2.60
2022-09-02T07:34:35.125Z,2.60
2022-09-02T07:37:08.584Z,2.27
2022-09-02T07:39:39.046Z,2.37
2022-09-02T07:42:08.361Z,2.00
2022-09-02T07:44:37.891Z,2.07
2022-09-02T07:47:08.737Z,1.60
2022-09-02T07:52:26.359Z,2.20
2022-09-02T07:54:54.476Z,2.30
2022-09-02T07:57:31.727Z,1.70
2022-09-02T07:59:59.884Z,2.07
2022-09-02T08:02:28.536Z,1.57
2022-09-02T08:04:58.076Z,2.03
2022-09-02T08:07:26.559Z,1.63
2022-09-02T08:09:54.616Z,1.67
2022-09-02T08:12:22.978Z,1.47
2022-09-02T08:14:51.135Z,2.30
2022-09-02T08:17:19.484Z,1.80
2022-09-02T08:19:47.942Z,1.90
2022-09-02T08:22:17.482Z,1.60
2022-09-02T08:24:45.650Z,1.90
2022-09-02T08:27:13.913Z,2.00
2022-09-02T08:29:42.278Z,2.30
2022-09-02T08:32:10.711Z,2.23
2022-09-02T08:34:41.911Z,2.00
2022-09-02T08:37:58.438Z,1.90
2022-09-02T08:40:34.336Z,1.70
2022-09-02T08:43:03.306Z,1.90
2022-09-02T08:45:34.466Z,1.60
2022-09-02T08:48:08.228Z,1.93
2022-09-02T08:50:37.957Z,1.90
2022-09-02T08:53:13.626Z,1.80
2022-09-02T08:55:54.263Z,1.80
2022-09-02T08:58:56.189Z,1.90
2022-09-02T09:01:34.223Z,2.30
2022-09-02T09:04:18.488Z,1.47
2022-09-02T09:07:14.134Z,1.90
2022-09-02T09:09:50.652Z,2.00
2022-09-02T09:12:29.669Z,2.30
2022-09-02T09:15:05.143Z,1.47
2022-09-02T09:17:40.247Z,1.87
2022-09-02T09:20:12.731Z,1.60
2022-09-02T09:22:42.309Z,1.50
2022-09-02T09:25:13.346Z,1.90
2022-09-02T09:27:45.798Z,1.80
2022-09-02T09:30:15.669Z,1.63
2022-09-02T09:32:47.535Z,1.50
2022-09-02T09:35:16.706Z,1.70
2022-09-02T09:37:48.315Z,2.00
2022-09-02T09:40:26.703Z,1.80
2022-09-02T09:42:58.993Z,1.80
2022-09-02T09:45:34.559Z,1.40
2022-09-02T09:48:27.560Z,2.63
2022-09-02T09:51:16.179Z,1.70
2022-09-02T09:53:45.048Z,1.60
2022-09-02T09:56:28.774Z,2.20
2022-09-02T09:58:58.357Z,1.50
2022-09-02T10:01:29.731Z,2.53
2022-09-02T10:04:01.302Z,2.20
2022-09-02T10:06:39.311Z,2.50
2022-09-02T10:09:27.300Z,2.10
2022-09-02T10:11:57.006Z,2.60
2022-09-02T10:14:35.261Z,2.00
2022-09-02T10:17:28.165Z,2.37
2022-09-02T10:19:59.079Z,2.40
2022-09-02T10:22:58.882Z,2.70
2022-09-02T10:25:33.533Z,2.57
2022-09-02T10:28:07.318Z,2.20
2022-09-02T10:30:42.822Z,2.20
2022-09-02T10:33:22.574Z,2.50
2022-09-02T10:35:53.475Z,2.37
2022-09-02T10:38:31.826Z,2.23
2022-09-02T10:41:05.207Z,2.20
2022-09-02T10:43:49.989Z,2.13
2022-09-02T10:46:28.023Z,2.27
2022-09-02T10:49:02.878Z,1.87
2022-09-02T10:51:38.685Z,1.63
2022-09-02T10:54:15.106Z,1.23
2022-09-02T10:56:50.706Z,2.10
2022-09-02T10:59:21.973Z,1.50
2022-09-02T11:01:56.507Z,1.70
2022-09-02T11:04:37.856Z,1.93
2022-09-02T11:07:07.296Z,1.60
2022-09-02T11:09:38.947Z,1.40
2022-09-02T11:12:11.427Z,1.20
2022-09-02T11:14:50.064Z,1.40
2022-09-02T11:17:27.944Z,1.40
2022-09-02T11:20:00.272Z,1.03
2022-09-02T11:22:32.527Z,1.90
2022-09-02T11:25:05.330Z,1.07
2022-09-02T11:27:42.561Z,1.00
2022-09-02T11:30:17.128Z,1.20
2022-09-02T11:32:52.245Z,1.20
2022-09-02T11:35:24.993Z,1.27
2022-09-02T11:37:56.119Z,1.20
2022-09-02T11:40:36.674Z,1.10
2022-09-02T11:43:20.038Z,1.30
2022-09-02T11:46:13.849Z,1.50
2022-09-02T11:49:45.898Z,1.00
2022-09-02T11:52:40.831Z,1.00
2022-09-02T11:55:12.663Z,1.40
2022-09-02T11:57:41.489Z,1.03
2022-09-02T12:00:29.744Z,1.03
2022-09-02T12:03:37.983Z,1.13
2022-09-02T12:06:11.853Z,0.97
2022-09-02T12:09:13.985Z,0.80
2022-09-02T12:11:53.615Z,1.00
2022-09-02T12:15:07.873Z,1.20
2022-09-02T12:17:42.639Z,1.20
2022-09-02T12:20:12.722Z,0.80
2022-09-02T12:22:42.174Z,1.00
2022-09-02T12:25:45.552Z,0.83
2022-09-02T12:28:27.100Z,1.37
2022-09-02T12:31:47.162Z,1.00
2022-09-02T12:34:52.842Z,0.70
2022-09-02T12:37:54.719Z,1.30
2022-09-02T12:40:35.285Z,0.90
2022-09-02T12:43:08.245Z,1.47
2022-09-02T12:45:42.672Z,0.90
2022-09-02T12:48:14.508Z,0.90
2022-09-02T12:50:55.797Z,0.80
2022-09-02T12:53:35.043Z,1.30
2022-09-02T12:56:06.605Z,1.30
2022-09-02T12:58:37.462Z,1.33
2022-09-02T13:01:14.714Z,1.20
2022-09-02T13:04:13.122Z,1.13
2022-09-02T13:06:55.458Z,1.30
2022-09-02T13:09:42.881Z,0.90
2022-09-02T13:12:35.536Z,0.93
2022-09-02T13:15:23.038Z,0.77
2022-09-02T13:18:15.756Z,1.17
2022-09-02T13:21:14.494Z,0.87
2022-09-02T13:24:05.838Z,1.10
2022-09-02T13:27:03.626Z,1.17
2022-09-02T13:30:00.803Z,1.43
2022-09-02T13:32:31.221Z,1.30
2022-09-02T13:35:07.406Z,1.20
2022-09-02T13:37:38.253Z,1.77
2022-09-02T13:40:09.235Z,1.17
2022-09-02T13:42:37.439Z,0.80
2022-09-02T13:45:13.851Z,1.27
2022-09-02T13:47:46.480Z,1.00
2022-09-02T13:50:19.749Z,0.90
2022-09-02T13:55:43.620Z,1.03
2022-09-02T13:58:32.684Z,1.30
2022-09-02T14:01:19.927Z,1.33
2022-09-02T14:03:51.897Z,1.10
2022-09-02T14:06:23.659Z,0.70
2022-09-02T14:08:54.055Z,1.87
2022-09-02T14:11:22.414Z,1.10
2022-09-02T14:13:53.930Z,1.43
2022-09-02T14:16:26.805Z,0.97
2022-09-02T14:19:09.079Z,1.10
2022-09-02T14:21:46.993Z,1.07
2022-09-02T14:24:16.978Z,1.10
2022-09-02T14:26:47.631Z,1.10
2022-09-02T14:29:17.913Z,1.20
2022-09-02T14:31:47.244Z,1.00
2022-09-02T14:34:35.659Z,1.10
2022-09-02T14:37:19.775Z,1.17
2022-09-02T14:40:11.727Z,1.07
2022-09-02T14:42:47.680Z,0.90
2022-09-02T14:45:16.228Z,1.00
2022-09-02T14:47:44.277Z,1.13
2022-09-02T14:50:15.579Z,1.17
2022-09-02T14:52:49.287Z,1.40
2022-09-02T14:55:54.152Z,1.33
2022-09-02T14:58:24.792Z,0.80
2022-09-02T15:00:56.915Z,1.53
2022-09-02T15:03:25.445Z,1.07
2022-09-02T15:05:53.970Z,1.20
2022-09-02T15:08:23.884Z,1.30
2022-09-02T15:10:54.936Z,1.00
2022-09-02T15:13:28.515Z,1.30
2022-09-02T15:15:57.362Z,1.47
2022-09-02T15:18:25.537Z,1.00
2022-09-02T15:20:54.266Z,1.10
2022-09-02T15:23:24.806Z,1.00
2022-09-02T15:25:54.577Z,1.40
2022-09-02T15:28:23.035Z,1.10
2022-09-02T15:30:58.753Z,1.00
2022-09-02T15:33:27.589Z,1.10
2022-09-02T15:35:56.088Z,1.07
2022-09-02T15:38:25.899Z,1.50
2022-09-02T15:40:54.478Z,0.90
2022-09-02T15:43:23.304Z,1.47
2022-09-02T15:45:52.208Z,0.93
2022-09-02T15:48:20.654Z,1.30
2022-09-02T15:50:48.995Z,1.57
2022-09-02T15:53:22.615Z,1.33
2022-09-02T15:55:52.181Z,0.87
2022-09-02T15:58:20.384Z,1.50
2022-09-02T16:00:48.542Z,0.80
2022-09-02T16:03:17.619Z,1.27
2022-09-02T16:05:46.275Z,1.00
2022-09-02T16:08:15.192Z,1.10
2022-09-02T16:10:45.521Z,0.90
2022-09-02T16:13:15.335Z,1.30
2022-09-02T16:15:44.983Z,0.87
2022-09-02T16:18:13.257Z,0.90
2022-09-02T16:20:41.584Z,1.00
2022-09-02T16:23:09.945Z,0.80
2022-09-02T16:25:38.171Z,1.00
2022-09-02T16:28:06.502Z,0.90
2022-09-02T16:30:36.516Z,1.13
2022-09-02T16:33:04.918Z,0.90
2022-09-02T16:35:33.026Z,1.23
2022-09-02T16:38:02.726Z,1.00
2022-09-02T16:40:30.738Z,1.07
2022-09-02T16:42:58.842Z,1.00
2022-09-02T16:45:26.948Z,0.87
2022-09-02T16:47:56.770Z,1.30
2022-09-02T16:50:25.399Z,0.90
2022-09-02T16:52:55.198Z,0.83
2022-09-02T16:55:23.565Z,0.73
2022-09-02T16:57:51.814Z,1.20
2022-09-02T17:00:20.369Z,1.40
2022-09-02T17:02:48.579Z,1.50
2022-09-02T17:05:18.809Z,0.80
2022-09-02T17:07:47.685Z,0.70
2022-09-02T17:10:16.323Z,1.00
2022-09-02T17:12:44.503Z,1.10
2022-09-02T17:15:12.822Z,1.47
2022-09-02T17:17:42.464Z,1.00
2022-09-02T17:20:13.160Z,1.13
2022-09-02T17:22:43.132Z,0.83
2022-09-02T17:25:11.663Z,1.10
2022-09-02T17:27:42.005Z,0.97
2022-09-02T17:30:12.554Z,1.30
2022-09-02T17:32:41.563Z,1.00
2022-09-02T17:35:11.473Z,1.00
2022-09-02T17:37:40.477Z,1.00
2022-09-02T17:40:24.921Z,0.87
2022-09-02T17:42:53.007Z,1.20
2022-09-02T17:45:21.193Z,0.90
2022-09-02T17:47:49.879Z,1.17
2022-09-02T17:50:18.249Z,1.40
2022-09-02T17:52:46.331Z,1.10
2022-09-02T17:55:19.825Z,0.80
2022-09-02T17:58:03.030Z,1.17
2022-09-02T18:00:31.342Z,1.20
2022-09-02T18:03:32.526Z,1.00
2022-09-02T18:06:10.773Z,0.80
2022-09-02T18:08:47.445Z,1.00
2022-09-02T18:11:17.291Z,1.07
2022-09-02T18:13:54.533Z,0.93
2022-09-02T18:16:36.900Z,1.17
2022-09-02T18:19:16.423Z,1.20
2022-09-02T18:21:54.968Z,0.90
2022-09-02T18:24:32.495Z,0.90
2022-09-02T18:27:07.482Z,1.23
2022-09-02T18:29:47.858Z,0.93
2022-09-02T18:32:26.296Z,1.10
2022-09-02T18:35:00.321Z,0.80
2022-09-02T18:37:36.220Z,1.50
2022-09-02T18:40:18.157Z,1.27
2022-09-02T18:42:52.060Z,1.53
2022-09-02T18:45:25.109Z,1.20
2022-09-02T18:47:55.996Z,1.03
2022-09-02T18:50:47.617Z,1.13
2022-09-02T18:53:16.733Z,1.30
2022-09-02T18:55:46.407Z,1.40
2022-09-02T18:58:22.872Z,1.47
2022-09-02T19:00:56.741Z,1.30
2022-09-02T19:03:25.130Z,1.40
2022-09-02T19:05:54.113Z,1.47
2022-09-02T19:08:30.601Z,1.70
2022-09-02T19:11:02.437Z,1.47
2022-09-02T19:13:36.866Z,1.50
2022-09-02T19:16:05.747Z,1.90
2022-09-02T19:18:34.052Z,1.60
2022-09-02T19:21:02.413Z,1.30
2022-09-02T19:23:31.169Z,1.07
2022-09-02T19:25:59.455Z,1.17
2022-09-02T19:28:28.008Z,1.10
2022-09-02T19:31:03.093Z,1.57
2022-09-02T19:33:32.733Z,1.37
2022-09-02T19:36:01.323Z,1.30
2022-09-02T19:38:31.583Z,1.07
2022-09-02T19:41:01.757Z,1.50
2022-09-02T19:43:29.870Z,1.33
2022-09-02T19:46:01.591Z,1.80
2022-09-02T19:48:30.100Z,1.47
2022-09-02T19:51:01.613Z,1.00
2022-09-02T19:53:30.925Z,1.37
2022-09-02T19:55:59.109Z,1.57
2022-09-02T19:58:27.886Z,1.37
2022-09-02T20:00:57.132Z,1.50
2022-09-02T20:03:28.153Z,0.97
2022-09-02T20:05:56.465Z,1.20
2022-09-02T20:08:30.920Z,1.20
2022-09-02T20:11:00.861Z,1.30
2022-09-02T20:13:30.366Z,1.40
2022-09-02T20:15:58.646Z,1.03
2022-09-02T20:18:28.318Z,1.40
2022-09-02T20:20:58.896Z,1.27
2022-09-02T20:23:28.728Z,1.10
2022-09-02T20:26:05.883Z,1.27
2022-09-02T20:28:36.771Z,1.00
2022-09-02T20:31:11.177Z,1.70
2022-09-02T20:33:46.518Z,1.27
2022-09-02T20:36:21.389Z,1.43
2022-09-02T20:39:04.076Z,0.77
2022-09-02T20:41:39.397Z,1.10
2022-09-02T20:44:25.072Z,0.97
2022-09-02T20:47:03.732Z,1.23
2022-09-02T20:49:45.277Z,1.20
2022-09-02T20:52:18.739Z,1.17
2022-09-02T20:54:49.629Z,1.67
2022-09-02T20:57:27.786Z,1.07
2022-09-02T21:00:03.958Z,1.10
2022-09-02T21:02:36.439Z,1.10
2022-09-02T21:05:09.728Z,1.10
2022-09-02T21:07:42.785Z,1.00
2022-09-02T21:10:16.823Z,1.27
2022-09-02T21:12:48.707Z,1.40
2022-09-02T21:15:26.510Z,1.20
2022-09-02T21:17:59.067Z,1.30
2022-09-02T21:20:36.469Z,1.40
2022-09-02T21:23:10.025Z,1.20
2022-09-02T21:25:44.521Z,1.33
2022-09-02T21:28:18.002Z,1.40
2022-09-02T21:30:49.925Z,1.43
2022-09-02T21:33:18.987Z,1.67
2022-09-02T21:35:51.200Z,1.10
2022-09-02T21:38:24.726Z,1.30
2022-09-02T21:41:04.028Z,1.33
2022-09-02T21:43:47.245Z,1.30
2022-09-02T21:46:22.602Z,1.30
2022-09-02T21:48:57.353Z,1.70
2022-09-02T21:51:37.669Z,1.60
2022-09-02T21:54:28.139Z,1.47
2022-09-02T21:57:12.533Z,1.50
2022-09-02T21:59:50.995Z,1.67
2022-09-02T22:02:25.850Z,1.13
2022-09-02T22:05:02.255Z,1.40
2022-09-02T22:07:35.608Z,1.33
2022-09-02T22:10:11.156Z,1.50
2022-09-02T22:12:41.723Z,1.57
2022-09-02T22:15:15.676Z,1.10
2022-09-02T22:17:47.068Z,1.60
2022-09-02T22:20:19.483Z,1.23
2022-09-02T22:22:54.521Z,1.10
2022-09-02T22:25:23.816Z,1.37
2022-09-02T22:27:56.985Z,1.70
2022-09-02T22:30:25.972Z,1.70
2022-09-02T22:32:57.226Z,1.13
2022-09-02T22:35:29.762Z,1.33
2022-09-02T22:38:10.358Z,1.23
2022-09-02T22:40:42.758Z,1.57
2022-09-02T22:43:14.311Z,1.33
2022-09-02T22:46:03.614Z,1.20
2022-09-02T22:48:53.400Z,1.23
2022-09-02T22:51:44.695Z,1.37
2022-09-02T22:54:14.854Z,1.33
2022-09-02T22:56:44.392Z,1.20
2022-09-02T22:59:18.705Z,1.67
2022-09-02T23:01:53.885Z,1.70
2022-09-02T23:04:35.681Z,1.50
2022-09-02T23:07:05.590Z,1.47
2022-09-02T23:09:37.894Z,1.30
2022-09-02T23:12:14.869Z,1.70
2022-09-02T23:14:48.693Z,1.60
2022-09-02T23:17:25.654Z,1.50
2022-09-02T23:20:02.909Z,5.20
2022-09-02T23:22:40.069Z,2.27
2022-09-02T23:25:23.295Z,2.17
2022-09-02T23:28:01.015Z,2.20
2022-09-02T23:30:29.386Z,2.50
2022-09-02T23:33:11.933Z,2.03
2022-09-02T23:35:45.936Z,2.10
2022-09-02T23:38:24.278Z,1.60
2022-09-02T23:40:59.412Z,2.20
2022-09-02T23:43:27.831Z,1.63
2022-09-02T23:45:57.131Z,2.17
2022-09-02T23:48:39.511Z,1.67
2022-09-02T23:51:17.557Z,1.60
2022-09-02T23:53:56.998Z,1.30
2022-09-02T23:56:36.832Z,1.53
2022-09-02T23:59:33.224Z,1.63
